Time;durP1;ratioP1;P1;durP2;ratioP2;P2;SDS_P1;SDS_P2;PMS_P1;PMS_P2;Temp;Humidity;BMP_temperature;BMP_pressure;BME280_temperature;BME280_humidity;BME280_pressure;Samples;Min_cycle;Max_cycle;Signal;HPM_P1;HPM_P2
2022/01/28 00:01:52;;;;;;;;;;;4.80;99.90;;;;;;5048261;28;20393;-47
2022/01/28 00:04:18;;;;;;;;;;;4.80;99.90;;;;;;5054682;28;20058;-44
2022/01/28 00:06:44;;;;;;;;;;;4.60;99.90;;;;;;5062927;28;20374;-45
2022/01/28 00:09:10;;;;;;;;;;;4.50;99.90;;;;;;5080459;28;19917;-44
2022/01/28 00:11:35;;;;;;;;;;;4.30;99.90;;;;;;5053377;28;19916;-44
2022/01/28 00:14:27;;;;;;;;;;;4.20;99.90;;;;;;5068091;28;20267;-43
2022/01/28 00:38:28;;;;;;;;;;;4.10;99.90;;;;;;5072973;28;19920;-44
2022/01/28 00:40:54;;;;;;;;;;;4.10;99.90;;;;;;5068072;28;19931;-45
2022/01/28 00:43:19;;;;;;;;;;;4.10;99.90;;;;;;5060258;28;20255;-43
2022/01/28 00:45:45;;;;;;;;;;;4.10;99.90;;;;;;5050333;28;19917;-44
2022/01/28 00:48:11;;;;;;;;;;;4.20;99.90;;;;;;5043181;28;19923;-46
2022/01/28 00:50:36;;;;;;;;;;;4.20;99.90;;;;;;5064703;28;19971;-46
2022/01/28 00:53:02;;;;;;;;;;;4.30;99.90;;;;;;5049948;28;19942;-44
2022/01/28 00:55:28;;;;;;;;;;;4.40;99.90;;;;;;5067996;28;19971;-44
2022/01/28 00:57:54;;;;;;;;;;;4.60;99.90;;;;;;5043586;28;19978;-46
2022/01/28 01:00:19;;;;;;;;;;;4.60;99.90;;;;;;5033801;28;19952;-48
2022/01/28 01:02:45;;;;;;;;;;;4.50;99.90;;;;;;5067563;28;19928;-45
2022/01/28 01:05:11;;;;;;;;;;;4.40;99.90;;;;;;5053679;28;20251;-45
2022/01/28 01:07:37;;;;;;;;;;;4.20;99.90;;;;;;5072835;28;19924;-46
2022/01/28 01:10:04;;;;;;;;;;;4.10;99.90;;;;;;5072134;28;20360;-44
2022/01/28 01:12:33;;;;;;;;;;;4.00;99.90;;;;;;5054539;28;19920;-45
2022/01/28 01:14:58;;;;;;;;;;;4.00;99.90;;;;;;5052492;28;19999;-46
2022/01/28 01:17:36;;;;;;;;;;;3.90;99.90;;;;;;5042377;28;19966;-44
2022/01/28 01:20:16;;;;;;;;;;;3.90;99.90;;;;;;5073680;28;19916;-44
2022/01/28 01:22:50;;;;;;;;;;;;;;;;;;5069535;28;20342;-44
2022/01/28 01:25:23;;;;;;;;;;;3.80;99.90;;;;;;5055671;28;19916;-44
2022/01/28 01:27:53;;;;;;;;;;;3.80;99.90;;;;;;5054226;28;20010;-44
2022/01/28 01:30:19;;;;;;;;;;;3.80;99.90;;;;;;5053709;28;20654;-45
2022/01/28 01:32:45;;;;;;;;;;;3.80;99.90;;;;;;5066312;28;19947;-46
2022/01/28 01:35:11;;;;;;;;;;;3.80;99.90;;;;;;5051968;28;20394;-44
2022/01/28 01:37:37;;;;;;;;;;;3.90;99.90;;;;;;5052605;28;20027;-43
2022/01/28 01:40:03;;;;;;;;;;;4.00;99.90;;;;;;5069559;28;19923;-45
2022/01/28 01:45:45;;;;;;;;;;;4.00;99.90;;;;;;5069756;28;19916;-45
2022/01/28 01:53:25;;;;;;;;;;;4.10;99.90;;;;;;5056603;28;20583;-46
2022/01/28 01:55:51;;;;;;;;;;;4.10;99.90;;;;;;5053987;28;19916;-44
2022/01/28 01:58:23;;;;;;;;;;;4.20;99.90;;;;;;5069708;28;19917;-45
2022/01/28 02:00:48;;;;;;;;;;;4.20;99.90;;;;;;5071419;28;19920;-47
2022/01/28 02:03:14;;;;;;;;;;;4.30;99.90;;;;;;5061945;28;19916;-44
2022/01/28 02:05:40;;;;;;;;;;;4.40;99.90;;;;;;5056820;28;19916;-46
2022/01/28 02:08:06;;;;;;;;;;;4.40;99.90;;;;;;5055022;28;20015;-47
2022/01/28 02:10:33;;;;;;;;;;;4.50;99.90;;;;;;5046397;28;20289;-44
2022/01/28 02:12:58;;;;;;;;;;;4.60;99.90;;;;;;5070799;28;19974;-45
2022/01/28 02:15:24;;;;;;;;;;;4.50;99.90;;;;;;5053810;28;19956;-45
2022/01/28 02:17:51;;;;;;;;;;;4.50;99.90;;;;;;5069101;28;19927;-45
2022/01/28 02:20:19;;;;;;;;;;;4.60;99.90;;;;;;5073111;28;19927;-44
2022/01/28 02:22:45;;;;;;;;;;;4.50;99.90;;;;;;5067030;28;19916;-45
2022/01/28 02:25:21;;;;;;;;;;;4.60;99.90;;;;;;5043043;28;19917;-45
2022/01/28 02:27:47;;;;;;;;;;;4.70;99.90;;;;;;5048941;28;19916;-45
2022/01/28 02:30:13;;;;;;;;;;;4.80;99.90;;;;;;5038171;28;21162;-45
2022/01/28 02:32:39;;;;;;;;;;;4.80;99.90;;;;;;5070071;28;20110;-45
2022/01/28 02:35:05;;;;;;;;;;;4.80;99.90;;;;;;5054232;28;20024;-44
2022/01/28 02:37:31;;;;;;;;;;;4.80;99.90;;;;;;5051003;28;20077;-45
2022/01/28 02:39:57;;;;;;;;;;;4.80;99.90;;;;;;5066774;28;20045;-44
2022/01/28 02:42:38;;;;;;;;;;;4.80;99.90;;;;;;5051079;28;19916;-45
2022/01/28 02:45:04;;;;;;;;;;;4.90;99.90;;;;;;5069307;28;19961;-47
2022/01/28 02:47:35;;;;;;;;;;;4.80;99.90;;;;;;5069655;28;19959;-45
2022/01/28 02:50:02;;;;;;;;;;;4.80;99.90;;;;;;5070429;28;20443;-45
2022/01/28 02:52:38;;;;;;;;;;;4.80;99.90;;;;;;5054308;28;20381;-45
2022/01/28 02:55:09;;;;;;;;;;;4.80;99.90;;;;;;5039203;28;19988;-46
2022/01/28 02:57:38;;;;;;;;;;;4.80;99.90;;;;;;5070469;28;20432;-45
2022/01/28 03:00:05;;;;;;;;;;;4.70;99.90;;;;;;5072493;28;20481;-45
2022/01/28 03:02:30;;;;;;;;;;;4.90;99.90;;;;;;5053103;28;19927;-45
2022/01/28 03:05:27;;;;;;;;;;;5.00;99.90;;;;;;5059002;28;19916;-45
2022/01/28 03:07:48;;;;;;;;;;;5.00;99.90;;;;;;5053359;28;19924;-46
2022/01/28 03:10:28;;;;;;;;;;;5.10;99.90;;;;;;5072253;28;19916;-46
2022/01/28 03:15:35;;;;;;;;;;;5.00;99.90;;;;;;5074945;28;20350;-44
2022/01/28 03:18:20;;;;;;;;;;;5.00;99.90;;;;;;5038373;28;19931;-45
2022/01/28 03:23:18;;;;;;;;;;;4.90;99.90;;;;;;5068763;28;20362;-45
2022/01/28 03:25:45;;;;;;;;;;;4.80;99.90;;;;;;5052197;28;20001;-45
2022/01/28 03:28:12;;;;;;;;;;;4.90;99.90;;;;;;5071651;28;19916;-44
2022/01/28 03:30:38;;;;;;;;;;;4.90;99.90;;;;;;5069174;28;19916;-44
2022/01/28 03:33:03;;;;;;;;;;;4.90;99.90;;;;;;5046795;28;20369;-46
2022/01/28 03:35:30;;;;;;;;;;;4.90;99.90;;;;;;5067107;28;19931;-47
2022/01/28 03:38:00;;;;;;;;;;;4.90;99.90;;;;;;5071527;28;19971;-45
2022/01/28 03:40:27;;;;;;;;;;;4.90;99.90;;;;;;5083381;28;20365;-44
2022/01/28 03:42:53;;;;;;;;;;;4.90;99.90;;;;;;5055249;28;19962;-45
2022/01/28 03:45:19;;;;;;;;;;;4.90;99.90;;;;;;5051534;28;19971;-44
2022/01/28 03:47:44;;;;;;;;;;;4.90;99.90;;;;;;5047927;28;19921;-44
2022/01/28 03:50:10;;;;;;;;;;;4.90;99.90;;;;;;5054923;28;19962;-43
2022/01/28 03:52:36;;;;;;;;;;;4.90;99.90;;;;;;5068922;28;19929;-44
2022/01/28 03:55:02;;;;;;;;;;;4.90;99.90;;;;;;5071588;28;19920;-44
2022/01/28 03:57:28;;;;;;;;;;;4.90;99.90;;;;;;5049364;28;19925;-46
2022/01/28 03:59:54;;;;;;;;;;;5.00;99.90;;;;;;5076895;28;19923;-46
2022/01/28 04:02:23;;;;;;;;;;;4.50;99.90;;;;;;5071336;28;19967;-45
2022/01/28 04:12:45;;;;;;;;;;;4.90;99.90;;;;;;5081271;28;19916;-45
2022/01/28 04:15:36;;;;;;;;;;;4.90;99.90;;;;;;5052131;28;19950;-45
2022/01/28 04:18:02;;;;;;;;;;;4.90;99.90;;;;;;5068170;28;19955;-44
2022/01/28 04:20:30;;;;;;;;;;;4.90;99.90;;;;;;5049491;28;20088;-46
2022/01/28 04:22:56;;;;;;;;;;;5.00;99.90;;;;;;5054023;28;19920;-44
2022/01/28 04:25:22;;;;;;;;;;;4.90;99.90;;;;;;5069883;28;19920;-45
2022/01/28 04:27:48;;;;;;;;;;;5.00;99.90;;;;;;5067139;28;19920;-45
2022/01/28 04:30:14;;;;;;;;;;;5.00;99.90;;;;;;5049693;28;19964;-44
2022/01/28 04:32:40;;;;;;;;;;;5.00;99.90;;;;;;5056835;28;20258;-44
2022/01/28 04:35:06;;;;;;;;;;;5.00;99.90;;;;;;5066657;28;19916;-43
2022/01/28 04:40:19;;;;;;;;;;;5.10;99.90;;;;;;5070044;28;19962;-45
2022/01/28 04:43:04;;;;;;;;;;;5.10;99.90;;;;;;5062438;28;19969;-43
2022/01/28 04:45:56;;;;;;;;;;;5.10;99.90;;;;;;5056828;28;19981;-45
2022/01/28 04:48:27;;;;;;;;;;;5.10;99.90;;;;;;5070159;28;19951;-44
2022/01/28 04:58:39;;;;;;;;;;;5.10;99.90;;;;;;5037321;28;19916;-45
2022/01/28 05:23:23;;;;;;;;;;;4.60;99.90;;;;;;5033529;28;19923;-44
2022/01/28 05:27:44;;;;;;;;;;;4.60;99.90;;;;;;5042238;28;19931;-44
2022/01/28 05:30:10;;;;;;;;;;;4.60;99.90;;;;;;5035178;28;19951;-43
2022/01/28 05:32:36;;;;;;;;;;;4.60;99.90;;;;;;5035176;28;19955;-44
2022/01/28 05:35:01;;;;;;;;;;;4.70;99.90;;;;;;5051459;28;19962;-44
2022/01/28 05:37:27;;;;;;;;;;;4.70;99.90;;;;;;5044008;28;20354;-44
2022/01/28 05:39:53;;;;;;;;;;;4.70;99.90;;;;;;5051389;28;19917;-45
2022/01/28 05:42:19;;;;;;;;;;;4.70;99.90;;;;;;5023570;28;19921;-44
2022/01/28 05:44:44;;;;;;;;;;;4.70;99.90;;;;;;5034109;28;19917;-43
2022/01/28 05:47:14;;;;;;;;;;;4.70;99.90;;;;;;5018471;28;19952;-45
2022/01/28 05:49:41;;;;;;;;;;;4.70;99.90;;;;;;5015581;28;20243;-44
2022/01/28 05:52:07;;;;;;;;;;;4.70;99.90;;;;;;5043013;28;19960;-45
2022/01/28 05:54:33;;;;;;;;;;;4.70;99.90;;;;;;5056118;28;19916;-44
2022/01/28 05:56:59;;;;;;;;;;;4.70;99.90;;;;;;5052417;28;19921;-44
2022/01/28 05:59:24;;;;;;;;;;;4.70;99.90;;;;;;5086139;28;19951;-44
2022/01/28 06:01:50;;;;;;;;;;;4.90;99.90;;;;;;5071063;28;20250;-44
2022/01/28 06:04:16;;;;;;;;;;;4.90;99.90;;;;;;5076035;28;19970;-44
2022/01/28 06:06:42;;;;;;;;;;;4.90;99.90;;;;;;5070897;28;19948;-44
2022/01/28 06:09:08;;;;;;;;;;;5.00;99.90;;;;;;5064000;28;19917;-44
2022/01/28 06:11:34;;;;;;;;;;;5.10;99.90;;;;;;5070025;28;19990;-46
2022/01/28 06:13:59;;;;;;;;;;;5.10;99.90;;;;;;5053442;28;20075;-48
2022/01/28 06:16:25;;;;;;;;;;;5.10;99.90;;;;;;5071086;28;19926;-45
2022/01/28 06:18:51;;;;;;;;;;;5.10;99.90;;;;;;5052250;28;20339;-45
2022/01/28 06:21:17;;;;;;;;;;;5.20;99.90;;;;;;5070254;28;19916;-46
2022/01/28 06:23:43;;;;;;;;;;;5.10;99.90;;;;;;5037951;28;20370;-46
2022/01/28 06:26:09;;;;;;;;;;;5.10;99.90;;;;;;5053671;28;20048;-47
2022/01/28 06:28:34;;;;;;;;;;;5.00;99.90;;;;;;5069909;28;19917;-46
2022/01/28 06:31:00;;;;;;;;;;;4.90;99.90;;;;;;5068407;28;19916;-45
2022/01/28 06:33:26;;;;;;;;;;;4.90;99.90;;;;;;5021824;28;19995;-46
2022/01/28 06:35:52;;;;;;;;;;;4.90;99.90;;;;;;5053980;28;19916;-46
2022/01/28 06:38:25;;;;;;;;;;;4.90;99.90;;;;;;5068366;28;19924;-45
2022/01/28 06:40:51;;;;;;;;;;;4.90;99.90;;;;;;5071793;28;20274;-46
2022/01/28 06:43:17;;;;;;;;;;;4.80;99.90;;;;;;5048028;28;19982;-45
2022/01/28 06:45:43;;;;;;;;;;;4.70;99.90;;;;;;5054224;28;19916;-44
2022/01/28 06:48:10;;;;;;;;;;;4.70;99.90;;;;;;5033544;28;19973;-43
2022/01/28 06:50:37;;;;;;;;;;;4.60;99.90;;;;;;5071644;28;19938;-45
2022/01/28 06:53:02;;;;;;;;;;;4.50;99.90;;;;;;5051926;28;19968;-45
2022/01/28 06:55:28;;;;;;;;;;;4.40;99.90;;;;;;5054565;28;19928;-44
2022/01/28 06:57:56;;;;;;;;;;;4.40;99.90;;;;;;5052004;28;19928;-45
2022/01/28 07:00:22;;;;;;;;;;;4.40;99.90;;;;;;5086492;28;19916;-44
2022/01/28 07:02:49;;;;;;;;;;;4.40;99.90;;;;;;5052138;28;19916;-45
2022/01/28 07:05:15;;;;;;;;;;;4.30;99.90;;;;;;5054044;28;20381;-45
2022/01/28 07:07:41;;;;;;;;;;;4.30;99.90;;;;;;5029970;28;19963;-44
2022/01/28 07:10:07;;;;;;;;;;;4.30;99.90;;;;;;5064678;28;19964;-46
2022/01/28 07:12:33;;;;;;;;;;;4.40;99.90;;;;;;5049773;28;19923;-45
2022/01/28 07:14:59;;;;;;;;;;;4.40;99.90;;;;;;5068440;28;19916;-46
2022/01/28 07:17:25;;;;;;;;;;;4.40;99.90;;;;;;5036268;28;19973;-44
2022/01/28 07:19:51;;;;;;;;;;;4.40;99.90;;;;;;5053673;28;19917;-45
2022/01/28 07:22:16;;;;;;;;;;;4.40;99.90;;;;;;5035609;28;19924;-46
2022/01/28 07:24:42;;;;;;;;;;;4.30;99.90;;;;;;5048197;28;19928;-45
2022/01/28 07:27:08;;;;;;;;;;;4.30;99.90;;;;;;5070883;28;20028;-44
2022/01/28 07:29:34;;;;;;;;;;;4.30;99.90;;;;;;5034976;28;20397;-44
2022/01/28 07:32:00;;;;;;;;;;;4.40;99.90;;;;;;5067399;28;20049;-45
2022/01/28 07:34:26;;;;;;;;;;;4.40;99.90;;;;;;5050963;28;20302;-43
2022/01/28 07:36:52;;;;;;;;;;;4.40;99.90;;;;;;5070259;28;19925;-46
2022/01/28 07:39:18;;;;;;;;;;;4.40;99.90;;;;;;5049700;28;19925;-44
2022/01/28 07:41:44;;;;;;;;;;;4.40;99.90;;;;;;5068510;28;19927;-45
2022/01/28 07:44:10;;;;;;;;;;;4.40;99.90;;;;;;5036298;28;19931;-44
2022/01/28 07:46:35;;;;;;;;;;;4.40;99.90;;;;;;5077231;28;19916;-44
2022/01/28 07:49:02;;;;;;;;;;;4.40;99.90;;;;;;5067759;28;20267;-45
2022/01/28 07:51:27;;;;;;;;;;;4.30;99.90;;;;;;5038604;28;19924;-45
2022/01/28 07:53:53;;;;;;;;;;;4.30;99.90;;;;;;5042232;28;19997;-44
2022/01/28 07:56:20;;;;;;;;;;;4.30;99.90;;;;;;5049414;28;19927;-45
2022/01/28 07:58:46;;;;;;;;;;;4.20;99.90;;;;;;5065027;28;20011;-44
2022/01/28 08:01:12;;;;;;;;;;;4.10;99.90;;;;;;5054759;28;20006;-43
2022/01/28 08:03:38;;;;;;;;;;;4.00;99.90;;;;;;5053416;28;19917;-44
2022/01/28 08:06:03;;;;;;;;;;;4.00;99.90;;;;;;5066978;28;19916;-44
2022/01/28 08:08:30;;;;;;;;;;;3.90;99.90;;;;;;5065995;28;19924;-45
2022/01/28 08:10:56;;;;;;;;;;;3.90;99.90;;;;;;5037849;28;19960;-44
2022/01/28 08:13:22;;;;;;;;;;;3.90;99.90;;;;;;5059490;28;19955;-44
2022/01/28 08:15:48;;;;;;;;;;;4.00;99.90;;;;;;5067033;28;19998;-44
2022/01/28 08:18:14;;;;;;;;;;;4.00;99.90;;;;;;5070735;28;19917;-44
2022/01/28 08:20:40;;;;;;;;;;;4.00;99.90;;;;;;5049098;28;20372;-44
2022/01/28 08:23:06;;;;;;;;;;;4.10;99.90;;;;;;5068406;28;20282;-46
2022/01/28 08:25:35;;;;;;;;;;;4.20;99.90;;;;;;5068043;28;19920;-44
2022/01/28 08:28:01;;;;;;;;;;;4.20;99.90;;;;;;5050914;28;19963;-43
2022/01/28 08:30:29;;;;;;;;;;;4.30;99.90;;;;;;5067339;28;19916;-45
2022/01/28 08:32:55;;;;;;;;;;;4.40;99.90;;;;;;5058181;28;19920;-44
2022/01/28 08:35:28;;;;;;;;;;;4.40;99.90;;;;;;5050339;28;20318;-44
2022/01/28 08:37:54;;;;;;;;;;;4.50;99.90;;;;;;5066421;28;19920;-44
2022/01/28 08:40:20;;;;;;;;;;;4.60;99.90;;;;;;5046142;28;19927;-44
2022/01/28 08:42:45;;;;;;;;;;;4.60;99.90;;;;;;5050310;28;19916;-44
2022/01/28 08:45:11;;;;;;;;;;;4.70;99.90;;;;;;5052650;28;19916;-44
2022/01/28 08:47:37;;;;;;;;;;;4.70;99.90;;;;;;5035710;28;19924;-45
2022/01/28 08:50:03;;;;;;;;;;;4.80;99.90;;;;;;5070423;28;19947;-45
2022/01/28 08:52:29;;;;;;;;;;;4.70;99.90;;;;;;5054588;28;20245;-43
2022/01/28 08:54:55;;;;;;;;;;;4.70;99.90;;;;;;5068832;28;19920;-43
2022/01/28 08:57:21;;;;;;;;;;;4.80;99.90;;;;;;5069198;28;20018;-45
2022/01/28 08:59:46;;;;;;;;;;;4.80;99.90;;;;;;5060669;28;20385;-44
2022/01/28 09:02:12;;;;;;;;;;;4.80;99.90;;;;;;5034966;28;20255;-45
2022/01/28 09:04:38;;;;;;;;;;;4.80;99.90;;;;;;5051236;28;19924;-45
2022/01/28 09:07:05;;;;;;;;;;;4.70;99.90;;;;;;5052695;28;19917;-48
2022/01/28 09:09:31;;;;;;;;;;;4.70;99.90;;;;;;5060722;28;20607;-49
2022/01/28 09:12:19;;;;;;;;;;;4.80;99.90;;;;;;5065307;28;19920;-51
2022/01/28 09:14:50;;;;;;;;;;;4.80;99.90;;;;;;5046378;28;20346;-49
2022/01/28 09:17:19;;;;;;;;;;;5.00;99.90;;;;;;5066531;28;19927;-51
2022/01/28 09:19:44;;;;;;;;;;;5.10;99.90;;;;;;5026860;28;19924;-50
2022/01/28 09:22:10;;;;;;;;;;;5.30;99.90;;;;;;5032986;28;19989;-49
2022/01/28 09:24:36;;;;;;;;;;;5.40;99.90;;;;;;5066814;28;20786;-50
2022/01/28 09:27:02;;;;;;;;;;;5.50;99.90;;;;;;5054607;28;19927;-50
2022/01/28 09:29:28;;;;;;;;;;;5.60;99.90;;;;;;5054312;28;19931;-49
2022/01/28 09:31:53;;;;;;;;;;;5.60;99.90;;;;;;5050719;28;19927;-51
2022/01/28 09:34:19;;;;;;;;;;;5.70;99.90;;;;;;5086092;28;20346;-50
2022/01/28 09:36:45;;;;;;;;;;;5.70;99.90;;;;;;5055729;28;19979;-50
2022/01/28 09:39:12;;;;;;;;;;;5.70;99.90;;;;;;5055926;28;20380;-50
2022/01/28 09:41:38;;;;;;;;;;;5.70;99.90;;;;;;5071209;28;20795;-48
2022/01/28 09:44:06;;;;;;;;;;;5.80;99.90;;;;;;5073841;28;19924;-51
2022/01/28 09:46:33;;;;;;;;;;;5.90;99.90;;;;;;5064096;28;20012;-49
2022/01/28 09:48:59;;;;;;;;;;;6.00;99.90;;;;;;5054792;28;19925;-52
2022/01/28 09:51:24;;;;;;;;;;;6.10;99.90;;;;;;5064231;28;19927;-49
2022/01/28 09:53:51;;;;;;;;;;;6.20;99.90;;;;;;5068937;28;19971;-51
2022/01/28 09:56:17;;;;;;;;;;;6.20;99.90;;;;;;5067297;28;19931;-51
2022/01/28 09:58:43;;;;;;;;;;;6.20;99.90;;;;;;5024195;28;19917;-49
2022/01/28 10:01:08;;;;;;;;;;;6.20;99.90;;;;;;5070899;28;19920;-50
2022/01/28 10:03:35;;;;;;;;;;;6.20;99.90;;;;;;5054349;28;20036;-51
2022/01/28 10:06:01;;;;;;;;;;;6.20;99.90;;;;;;5071243;28;19916;-50
2022/01/28 10:08:27;;;;;;;;;;;6.20;99.90;;;;;;5063525;28;19917;-51
2022/01/28 10:11:04;;;;;;;;;;;6.30;99.90;;;;;;5071203;28;19916;-51
2022/01/28 10:13:39;;;;;;;;;;;6.30;99.90;;;;;;5037808;28;19916;-49
2022/01/28 10:16:13;;;;;;;;;;;6.40;99.90;;;;;;5054022;28;19916;-51
2022/01/28 10:18:41;;;;;;;;;;;6.40;99.90;;;;;;5053354;28;19957;-49
2022/01/28 10:21:24;;;;;;;;;;;6.40;99.90;;;;;;5037540;28;20062;-50
2022/01/28 10:23:59;;;;;;;;;;;6.40;99.90;;;;;;5053260;28;19920;-51
2022/01/28 10:26:29;;;;;;;;;;;6.40;99.90;;;;;;5051356;28;19916;-50
2022/01/28 10:28:55;;;;;;;;;;;6.40;99.90;;;;;;5070508;28;20032;-51
2022/01/28 10:31:21;;;;;;;;;;;6.50;99.90;;;;;;5050768;28;19968;-50
2022/01/28 10:33:46;;;;;;;;;;;6.50;99.90;;;;;;5067519;28;19947;-50
2022/01/28 10:36:22;;;;;;;;;;;6.60;99.90;;;;;;5053734;28;19923;-52
2022/01/28 10:38:48;;;;;;;;;;;6.80;99.90;;;;;;5049981;28;19924;-49
2022/01/28 10:41:15;;;;;;;;;;;6.80;99.90;;;;;;5044261;28;19917;-49
2022/01/28 10:43:42;;;;;;;;;;;6.80;99.90;;;;;;5069020;28;19927;-49
2022/01/28 10:46:07;;;;;;;;;;;6.80;99.90;;;;;;5070685;28;19922;-50
2022/01/28 10:48:46;;;;;;;;;;;6.80;99.90;;;;;;5071008;28;19916;-51
2022/01/28 10:51:12;;;;;;;;;;;6.90;99.90;;;;;;5051368;28;19924;-50
2022/01/28 10:53:38;;;;;;;;;;;6.90;99.90;;;;;;5073664;28;20332;-49
2022/01/28 10:56:10;;;;;;;;;;;6.90;99.90;;;;;;5071406;28;19916;-50
2022/01/28 10:58:37;;;;;;;;;;;6.90;99.90;;;;;;5082964;28;19930;-49
2022/01/28 11:01:02;;;;;;;;;;;6.90;99.90;;;;;;5051217;28;19916;-50
2022/01/28 11:03:28;;;;;;;;;;;7.00;99.90;;;;;;5058530;28;20021;-50
2022/01/28 11:05:58;;;;;;;;;;;7.00;99.90;;;;;;5055449;28;19995;-51
2022/01/28 11:08:25;;;;;;;;;;;7.00;99.90;;;;;;5086958;28;20363;-50
2022/01/28 11:10:51;;;;;;;;;;;7.10;99.90;;;;;;5050358;28;20382;-50
2022/01/28 11:13:17;;;;;;;;;;;7.10;99.90;;;;;;5061031;28;20420;-52
2022/01/28 11:15:43;;;;;;;;;;;7.10;99.90;;;;;;5052289;28;19920;-49
2022/01/28 11:18:09;;;;;;;;;;;7.20;99.90;;;;;;5051842;28;19928;-50
2022/01/28 11:20:39;;;;;;;;;;;7.10;99.90;;;;;;5051310;28;20304;-49
2022/01/28 11:23:08;;;;;;;;;;;7.10;99.90;;;;;;5068463;28;19916;-50
2022/01/28 11:25:36;;;;;;;;;;;7.10;99.90;;;;;;5048148;28;19916;-50
2022/01/28 11:28:06;;;;;;;;;;;7.10;99.90;;;;;;5075179;28;19970;-51
2022/01/28 11:30:32;;;;;;;;;;;7.10;99.90;;;;;;5079546;28;19924;-49
2022/01/28 11:33:00;;;;;;;;;;;7.00;99.90;;;;;;5037474;28;19928;-50
2022/01/28 11:35:27;;;;;;;;;;;7.00;99.90;;;;;;5069590;28;19923;-49
2022/01/28 11:37:56;;;;;;;;;;;6.90;99.90;;;;;;5072547;28;19947;-51
2022/01/28 11:40:22;;;;;;;;;;;6.80;99.90;;;;;;5054039;28;19927;-50
2022/01/28 11:42:48;;;;;;;;;;;6.80;99.90;;;;;;5047124;28;20337;-49
2022/01/28 11:45:14;;;;;;;;;;;6.80;99.90;;;;;;5065856;28;19916;-50
2022/01/28 11:48:00;;;;;;;;;;;6.70;99.90;;;;;;5067865;28;20346;-50
2022/01/28 11:50:26;;;;;;;;;;;6.70;99.90;;;;;;5067852;28;20019;-49
2022/01/28 11:52:52;;;;;;;;;;;6.70;99.90;;;;;;5047910;28;20011;-49
2022/01/28 11:55:21;;;;;;;;;;;6.80;99.90;;;;;;5074614;28;20288;-50
2022/01/28 11:57:51;;;;;;;;;;;6.80;99.90;;;;;;5050492;28;20331;-53
2022/01/28 12:00:18;;;;;;;;;;;7.00;99.90;;;;;;5056408;28;20851;-50
2022/01/28 12:02:48;;;;;;;;;;;7.00;99.90;;;;;;5052471;28;19931;-50
2022/01/28 12:05:46;;;;;;;;;;;6.90;99.90;;;;;;5062488;28;20010;-51
2022/01/28 12:08:12;;;;;;;;;;;7.00;99.90;;;;;;5089089;28;19935;-50
2022/01/28 12:10:42;;;;;;;;;;;7.10;99.90;;;;;;5067142;28;19955;-50
2022/01/28 12:13:12;;;;;;;;;;;7.30;99.90;;;;;;5052511;28;19943;-49
2022/01/28 12:18:43;;;;;;;;;;;7.50;99.90;;;;;;5072528;28;20003;-48
2022/01/28 12:21:12;;;;;;;;;;;7.50;99.90;;;;;;5062295;28;19916;-50
2022/01/28 12:23:38;;;;;;;;;;;7.50;99.90;;;;;;5068940;28;19920;-50
2022/01/28 12:26:03;;;;;;;;;;;7.60;99.90;;;;;;5071120;28;20030;-50
2022/01/28 12:28:32;;;;;;;;;;;7.60;99.90;;;;;;5053427;28;19920;-49
2022/01/28 12:31:06;;;;;;;;;;;7.60;99.90;;;;;;5061803;28;20266;-49
2022/01/28 12:33:33;;;;;;;;;;;7.60;99.90;;;;;;5061535;28;19966;-50
2022/01/28 12:36:05;;;;;;;;;;;7.60;99.90;;;;;;5065765;28;19920;-51
2022/01/28 12:38:32;;;;;;;;;;;7.60;99.90;;;;;;5046770;28;19964;-49
2022/01/28 12:41:07;;;;;;;;;;;7.60;99.90;;;;;;5069134;28;19967;-49
2022/01/28 12:43:33;;;;;;;;;;;7.60;99.90;;;;;;5053993;28;20243;-49
2022/01/28 12:46:19;;;;;;;;;;;7.60;99.90;;;;;;5074464;28;19924;-50
2022/01/28 12:48:49;;;;;;;;;;;7.60;99.90;;;;;;5032836;28;19920;-49
2022/01/28 12:51:15;;;;;;;;;;;7.60;99.90;;;;;;5073165;28;19925;-51
2022/01/28 12:53:42;;;;;;;;;;;7.70;99.90;;;;;;5069290;28;19920;-49
2022/01/28 12:56:09;;;;;;;;;;;7.70;99.90;;;;;;5065943;28;20386;-51
2022/01/28 12:58:51;;;;;;;;;;;7.80;99.90;;;;;;5020786;28;19916;-50
2022/01/28 13:01:19;;;;;;;;;;;7.70;99.90;;;;;;5049305;28;19917;-50
2022/01/28 13:03:53;;;;;;;;;;;7.60;99.90;;;;;;5073822;28;20360;-51
2022/01/28 13:08:59;;;;;;;;;;;7.60;99.90;;;;;;5070156;28;19920;-52
2022/01/28 13:11:25;;;;;;;;;;;7.60;99.90;;;;;;5070016;28;19947;-50
2022/01/28 13:13:57;;;;;;;;;;;7.60;99.90;;;;;;5036303;28;19934;-51
2022/01/28 13:16:36;;;;;;;;;;;7.50;99.90;;;;;;5068103;28;19929;-49
2022/01/28 13:19:03;;;;;;;;;;;7.50;99.90;;;;;;5071511;28;19974;-49
2022/01/28 13:21:29;;;;;;;;;;;7.50;99.90;;;;;;5071046;28;19920;-51
2022/01/28 13:24:10;;;;;;;;;;;7.50;99.90;;;;;;5077597;28;20306;-49
2022/01/28 13:26:51;;;;;;;;;;;7.40;99.90;;;;;;5070132;28;19920;-48
2022/01/28 13:29:17;;;;;;;;;;;7.40;99.90;;;;;;5032893;28;19931;-49
2022/01/28 13:31:43;;;;;;;;;;;7.30;99.90;;;;;;5042495;28;19920;-50
2022/01/28 13:34:10;;;;;;;;;;;7.30;99.90;;;;;;5071644;28;19923;-48
2022/01/28 13:36:43;;;;;;;;;;;7.30;99.90;;;;;;5085645;28;20438;-49
2022/01/28 13:39:13;;;;;;;;;;;7.40;99.90;;;;;;5071421;28;20550;-50
2022/01/28 13:41:40;;;;;;;;;;;7.40;99.90;;;;;;5073019;28;19945;-49
2022/01/28 13:44:18;;;;;;;;;;;7.40;99.90;;;;;;5061944;28;19916;-50
2022/01/28 13:46:53;;;;;;;;;;;7.40;99.90;;;;;;5041849;28;19931;-50
2022/01/28 13:49:20;;;;;;;;;;;7.40;99.90;;;;;;5051170;28;19924;-49
2022/01/28 13:51:46;;;;;;;;;;;7.50;99.90;;;;;;5076503;28;19924;-49
2022/01/28 13:54:15;;;;;;;;;;;7.50;99.90;;;;;;5029915;28;19929;-50
2022/01/28 13:56:43;;;;;;;;;;;7.60;99.90;;;;;;5068597;28;19968;-51
2022/01/28 13:59:10;;;;;;;;;;;7.50;99.90;;;;;;5085797;28;19955;-49
2022/01/28 14:01:36;;;;;;;;;;;7.50;99.90;;;;;;5082219;28;19947;-49
2022/01/28 14:04:02;;;;;;;;;;;7.40;99.90;;;;;;5074405;28;19954;-49
2022/01/28 14:06:32;;;;;;;;;;;7.30;99.90;;;;;;5053340;28;19966;-48
2022/01/28 14:09:13;;;;;;;;;;;7.30;99.90;;;;;;5052617;28;19928;-49
2022/01/28 14:11:41;;;;;;;;;;;7.20;99.90;;;;;;5067700;28;19924;-48
2022/01/28 14:14:11;;;;;;;;;;;7.20;99.90;;;;;;5054543;28;19974;-50
2022/01/28 14:16:38;;;;;;;;;;;7.10;99.90;;;;;;5070770;28;20019;-50
2022/01/28 14:19:04;;;;;;;;;;;7.10;99.90;;;;;;5072267;28;20546;-50
2022/01/28 14:21:30;;;;;;;;;;;7.10;99.90;;;;;;5047929;28;19928;-51
2022/01/28 14:23:55;;;;;;;;;;;7.00;99.90;;;;;;5056927;28;19975;-50
2022/01/28 14:26:21;;;;;;;;;;;7.00;99.90;;;;;;5051927;28;20461;-49
2022/01/28 14:31:16;;;;;;;;;;;7.00;99.90;;;;;;5069686;28;19922;-50
2022/01/28 14:33:44;;;;;;;;;;;6.90;99.90;;;;;;5052204;28;19916;-50
2022/01/28 14:36:11;;;;;;;;;;;6.90;99.90;;;;;;5069705;28;19917;-48
2022/01/28 14:38:36;;;;;;;;;;;6.90;99.90;;;;;;5042285;28;19916;-50
2022/01/28 14:41:02;;;;;;;;;;;6.90;99.90;;;;;;5064987;28;19935;-52
2022/01/28 14:43:28;;;;;;;;;;;6.90;99.90;;;;;;5073542;28;19924;-49
2022/01/28 14:45:53;;;;;;;;;;;6.90;99.90;;;;;;5070592;28;20286;-48
2022/01/28 14:48:21;;;;;;;;;;;6.90;99.90;;;;;;5043158;28;20396;-49
2022/01/28 14:50:48;;;;;;;;;;;6.90;99.90;;;;;;5072002;28;19916;-50
2022/01/28 14:53:14;;;;;;;;;;;6.90;99.90;;;;;;5036569;28;19928;-48
2022/01/28 14:55:41;;;;;;;;;;;6.90;99.90;;;;;;5053154;28;20577;-48
2022/01/28 14:58:07;;;;;;;;;;;6.90;99.90;;;;;;5063785;28;19929;-50
2022/01/28 15:00:32;;;;;;;;;;;6.80;99.90;;;;;;5071804;28;20405;-48
2022/01/28 15:02:59;;;;;;;;;;;6.80;99.90;;;;;;5054343;28;19959;-47
2022/01/28 15:05:27;;;;;;;;;;;6.80;99.90;;;;;;5052044;28;19923;-49
2022/01/28 15:07:53;;;;;;;;;;;6.80;99.90;;;;;;5082312;28;19916;-49
2022/01/28 15:10:26;;;;;;;;;;;6.80;99.90;;;;;;5084174;28;19921;-48
2022/01/28 15:12:52;;;;;;;;;;;6.80;99.90;;;;;;5070133;28;20311;-48
2022/01/28 15:15:18;;;;;;;;;;;6.70;99.90;;;;;;5047301;28;20358;-49
2022/01/28 15:17:44;;;;;;;;;;;6.70;99.90;;;;;;5050823;28;19921;-48
2022/01/28 15:20:10;;;;;;;;;;;6.70;99.90;;;;;;5054776;28;19917;-49
2022/01/28 15:22:35;;;;;;;;;;;6.60;99.90;;;;;;5066484;28;20407;-52
2022/01/28 15:25:04;;;;;;;;;;;6.60;99.90;;;;;;5051610;28;19943;-48
2022/01/28 15:27:33;;;;;;;;;;;6.60;99.90;;;;;;5079044;28;20372;-49
2022/01/28 15:30:25;;;;;;;;;;;6.50;99.90;;;;;;5061571;28;19920;-50
2022/01/28 15:38:07;;;;;;;;;;;6.40;99.90;;;;;;5052979;28;19959;-48
2022/01/28 15:40:33;;;;;;;;;;;6.40;99.90;;;;;;5052707;28;20393;-48
2022/01/28 15:43:01;;;;;;;;;;;6.30;99.90;;;;;;5081690;28;19943;-48
2022/01/28 15:45:31;;;;;;;;;;;6.30;99.90;;;;;;5067689;28;19921;-49
2022/01/28 15:47:57;;;;;;;;;;;6.30;99.90;;;;;;5045925;28;19919;-49
2022/01/28 15:50:24;;;;;;;;;;;6.20;99.90;;;;;;5065739;28;19939;-48
2022/01/28 15:52:50;;;;;;;;;;;6.20;99.90;;;;;;5048523;28;20062;-48
2022/01/28 15:55:16;;;;;;;;;;;6.20;99.90;;;;;;5070752;28;19917;-48
2022/01/28 15:57:42;;;;;;;;;;;6.20;99.90;;;;;;5049084;28;19928;-48
2022/01/28 16:00:08;;;;;;;;;;;6.10;99.90;;;;;;5067162;28;20012;-48
2022/01/28 16:02:34;;;;;;;;;;;6.10;99.90;;;;;;5051990;28;20311;-49
2022/01/28 16:05:00;;;;;;;;;;;6.10;99.90;;;;;;5068793;28;20020;-49
2022/01/28 16:07:29;;;;;;;;;;;6.00;99.90;;;;;;5068660;28;19973;-49